sensor_id;sensor_type;location;lat;lon;timestamp;pressure;altitude;pressure_sealevel;temperature;humidity
42411;BME280;28056;51.112;0.984;2022-08-30T00:00:21;101263.98;;;17.13;52.44
42411;BME280;28056;51.112;0.984;2022-08-30T00:04:48;101267.86;;;16.83;52.09
42411;BME280;28056;51.112;0.984;2022-08-30T00:07:16;101269.38;;;16.53;52.94
42411;BME280;28056;51.112;0.984;2022-08-30T00:09:43;101272.95;;;17.12;52.15
42411;BME280;28056;51.112;0.984;2022-08-30T00:12:11;101275.14;;;18.03;50.86
42411;BME280;28056;51.112;0.984;2022-08-30T00:14:38;101271.65;;;17.46;52.02
42411;BME280;28056;51.112;0.984;2022-08-30T00:17:06;101269.63;;;16.40;53.93
42411;BME280;28056;51.112;0.984;2022-08-30T00:19:33;101270.87;;;16.93;53.26
42411;BME280;28056;51.112;0.984;2022-08-30T00:22:01;101269.77;;;16.84;53.16
42411;BME280;28056;51.112;0.984;2022-08-30T00:24:28;101270.19;;;16.57;53.71
42411;BME280;28056;51.112;0.984;2022-08-30T00:26:56;101271.65;;;16.40;54.31
42411;BME280;28056;51.112;0.984;2022-08-30T00:29:23;101272.10;;;16.85;53.95
42411;BME280;28056;51.112;0.984;2022-08-30T00:31:51;101266.84;;;16.69;54.49
42411;BME280;28056;51.112;0.984;2022-08-30T00:34:18;101265.74;;;16.61;54.54
42411;BME280;28056;51.112;0.984;2022-08-30T00:36:46;101266.24;;;17.23;52.89
42411;BME280;28056;51.112;0.984;2022-08-30T00:39:14;101271.10;;;17.18;53.17
42411;BME280;28056;51.112;0.984;2022-08-30T00:41:41;101271.44;;;16.98;53.75
42411;BME280;28056;51.112;0.984;2022-08-30T00:44:09;101268.16;;;17.88;51.32
42411;BME280;28056;51.112;0.984;2022-08-30T00:46:37;101267.76;;;17.30;52.82
42411;BME280;28056;51.112;0.984;2022-08-30T00:49:06;101268.22;;;17.90;51.54
42411;BME280;28056;51.112;0.984;2022-08-30T00:51:35;101265.88;;;17.86;51.76
42411;BME280;28056;51.112;0.984;2022-08-30T00:54:05;101268.56;;;16.36;54.70
42411;BME280;28056;51.112;0.984;2022-08-30T00:56:33;101269.44;;;17.30;53.03
42411;BME280;28056;51.112;0.984;2022-08-30T00:59:03;101272.59;;;16.50;54.20
42411;BME280;28056;51.112;0.984;2022-08-30T01:01:33;101271.76;;;17.86;51.26
42411;BME280;28056;51.112;0.984;2022-08-30T01:04:01;101271.84;;;17.67;51.57
42411;BME280;28056;51.112;0.984;2022-08-30T01:06:30;101268.38;;;17.63;51.96
42411;BME280;28056;51.112;0.984;2022-08-30T01:08:58;101266.29;;;18.38;50.44
42411;BME280;28056;51.112;0.984;2022-08-30T01:11:28;101261.30;;;17.84;51.24
42411;BME280;28056;51.112;0.984;2022-08-30T01:13:58;101257.62;;;17.77;51.21
42411;BME280;28056;51.112;0.984;2022-08-30T01:16:25;101255.76;;;17.32;51.63
42411;BME280;28056;51.112;0.984;2022-08-30T01:18:56;101263.88;;;18.38;50.60
42411;BME280;28056;51.112;0.984;2022-08-30T01:21:29;101263.44;;;17.31;53.40
42411;BME280;28056;51.112;0.984;2022-08-30T01:24:01;101270.30;;;16.72;54.70
42411;BME280;28056;51.112;0.984;2022-08-30T01:26:32;101271.19;;;18.44;51.86
42411;BME280;28056;51.112;0.984;2022-08-30T01:29:04;101273.27;;;18.09;50.94
42411;BME280;28056;51.112;0.984;2022-08-30T01:31:32;101275.56;;;17.87;51.71
42411;BME280;28056;51.112;0.984;2022-08-30T01:34:00;101278.48;;;18.24;51.07
42411;BME280;28056;51.112;0.984;2022-08-30T01:36:28;101273.57;;;17.18;53.18
42411;BME280;28056;51.112;0.984;2022-08-30T01:38:56;101274.33;;;18.10;52.26
42411;BME280;28056;51.112;0.984;2022-08-30T01:41:27;101269.73;;;17.93;53.15
42411;BME280;28056;51.112;0.984;2022-08-30T01:43:57;101275.42;;;18.07;52.66
42411;BME280;28056;51.112;0.984;2022-08-30T01:46:28;101272.60;;;17.93;52.48
42411;BME280;28056;51.112;0.984;2022-08-30T01:48:57;101271.50;;;16.72;55.54
42411;BME280;28056;51.112;0.984;2022-08-30T01:51:27;101267.89;;;17.90;53.42
42411;BME280;28056;51.112;0.984;2022-08-30T01:53:55;101270.23;;;18.08;53.06
42411;BME280;28056;51.112;0.984;2022-08-30T01:56:23;101263.09;;;17.77;53.21
42411;BME280;28056;51.112;0.984;2022-08-30T01:58:51;101264.28;;;18.01;52.72
42411;BME280;28056;51.112;0.984;2022-08-30T02:01:22;101259.98;;;17.74;53.83
42411;BME280;28056;51.112;0.984;2022-08-30T02:03:50;101255.45;;;17.07;55.01
42411;BME280;28056;51.112;0.984;2022-08-30T02:06:19;101255.58;;;17.11;55.55
42411;BME280;28056;51.112;0.984;2022-08-30T02:08:47;101254.42;;;17.48;54.50
42411;BME280;28056;51.112;0.984;2022-08-30T02:11:15;101252.73;;;18.41;52.83
42411;BME280;28056;51.112;0.984;2022-08-30T02:13:44;101244.00;;;17.15;54.91
42411;BME280;28056;51.112;0.984;2022-08-30T02:16:15;101247.11;;;17.84;53.28
42411;BME280;28056;51.112;0.984;2022-08-30T02:18:44;101247.62;;;18.36;53.35
42411;BME280;28056;51.112;0.984;2022-08-30T02:21:12;101245.44;;;17.35;54.28
42411;BME280;28056;51.112;0.984;2022-08-30T02:23:39;101240.61;;;16.96;55.33
42411;BME280;28056;51.112;0.984;2022-08-30T02:26:08;101237.67;;;18.00;53.85
42411;BME280;28056;51.112;0.984;2022-08-30T02:28:35;101236.87;;;18.56;52.86
42411;BME280;28056;51.112;0.984;2022-08-30T02:31:03;101231.43;;;17.88;54.24
42411;BME280;28056;51.112;0.984;2022-08-30T02:33:30;101229.50;;;17.73;54.36
42411;BME280;28056;51.112;0.984;2022-08-30T02:35:58;101231.82;;;17.17;55.57
42411;BME280;28056;51.112;0.984;2022-08-30T02:38:26;101232.82;;;17.00;56.31
42411;BME280;28056;51.112;0.984;2022-08-30T02:40:53;101232.05;;;17.62;54.83
42411;BME280;28056;51.112;0.984;2022-08-30T02:43:21;101233.74;;;18.09;53.39
42411;BME280;28056;51.112;0.984;2022-08-30T02:45:49;101237.08;;;17.64;53.53
42411;BME280;28056;51.112;0.984;2022-08-30T02:48:16;101243.51;;;18.66;52.38
42411;BME280;28056;51.112;0.984;2022-08-30T02:50:45;101240.82;;;18.15;52.83
42411;BME280;28056;51.112;0.984;2022-08-30T02:53:15;101239.05;;;18.75;51.68
42411;BME280;28056;51.112;0.984;2022-08-30T02:55:42;101241.52;;;19.11;50.66
42411;BME280;28056;51.112;0.984;2022-08-30T02:58:10;101239.78;;;18.64;51.97
42411;BME280;28056;51.112;0.984;2022-08-30T03:00:38;101238.63;;;18.85;51.00
42411;BME280;28056;51.112;0.984;2022-08-30T03:03:06;101237.73;;;17.54;53.92
42411;BME280;28056;51.112;0.984;2022-08-30T03:05:34;101234.64;;;18.00;52.94
42411;BME280;28056;51.112;0.984;2022-08-30T03:08:01;101235.57;;;18.34;52.93
42411;BME280;28056;51.112;0.984;2022-08-30T03:10:29;101235.71;;;18.97;50.99
42411;BME280;28056;51.112;0.984;2022-08-30T03:12:56;101233.65;;;17.67;53.38
42411;BME280;28056;51.112;0.984;2022-08-30T03:15:24;101233.01;;;16.74;55.49
42411;BME280;28056;51.112;0.984;2022-08-30T03:17:52;101229.70;;;17.85;54.08
42411;BME280;28056;51.112;0.984;2022-08-30T03:20:21;101222.78;;;18.18;52.63
42411;BME280;28056;51.112;0.984;2022-08-30T03:22:48;101220.50;;;18.40;52.78
42411;BME280;28056;51.112;0.984;2022-08-30T03:25:17;101220.06;;;17.39;53.59
42411;BME280;28056;51.112;0.984;2022-08-30T03:27:44;101221.53;;;17.49;54.95
42411;BME280;28056;51.112;0.984;2022-08-30T03:30:12;101216.00;;;16.82;56.44
42411;BME280;28056;51.112;0.984;2022-08-30T03:32:40;101210.78;;;17.10;55.55
42411;BME280;28056;51.112;0.984;2022-08-30T03:35:08;101211.69;;;18.11;54.02
42411;BME280;28056;51.112;0.984;2022-08-30T03:37:36;101208.80;;;18.54;53.10
42411;BME280;28056;51.112;0.984;2022-08-30T03:40:05;101199.59;;;17.16;56.06
42411;BME280;28056;51.112;0.984;2022-08-30T03:42:33;101197.17;;;17.30;56.04
42411;BME280;28056;51.112;0.984;2022-08-30T03:45:01;101195.83;;;17.91;54.18
42411;BME280;28056;51.112;0.984;2022-08-30T03:47:30;101195.44;;;18.27;53.03
42411;BME280;28056;51.112;0.984;2022-08-30T03:49:57;101199.55;;;18.92;51.70
42411;BME280;28056;51.112;0.984;2022-08-30T03:52:25;101198.71;;;19.27;51.06
42411;BME280;28056;51.112;0.984;2022-08-30T03:54:52;101197.46;;;17.95;52.71
42411;BME280;28056;51.112;0.984;2022-08-30T03:57:20;101200.57;;;18.15;52.99
42411;BME280;28056;51.112;0.984;2022-08-30T03:59:48;101197.79;;;18.74;52.07
42411;BME280;28056;51.112;0.984;2022-08-30T04:02:15;101196.93;;;18.20;53.12
42411;BME280;28056;51.112;0.984;2022-08-30T04:04:43;101189.38;;;18.58;52.79
42411;BME280;28056;51.112;0.984;2022-08-30T04:07:10;101187.26;;;18.25;53.70
42411;BME280;28056;51.112;0.984;2022-08-30T04:09:38;101185.58;;;17.68;55.25
42411;BME280;28056;51.112;0.984;2022-08-30T04:12:05;101183.21;;;17.36;56.05
42411;BME280;28056;51.112;0.984;2022-08-30T04:14:33;101185.48;;;18.14;55.07
42411;BME280;28056;51.112;0.984;2022-08-30T04:17:00;101184.74;;;18.36;54.87
42411;BME280;28056;51.112;0.984;2022-08-30T04:19:28;101188.47;;;18.55;54.53
42411;BME280;28056;51.112;0.984;2022-08-30T04:21:56;101183.63;;;17.98;55.79
42411;BME280;28056;51.112;0.984;2022-08-30T04:24:23;101183.53;;;18.21;55.06
42411;BME280;28056;51.112;0.984;2022-08-30T04:26:50;101182.61;;;18.43;55.31
42411;BME280;28056;51.112;0.984;2022-08-30T04:29:18;101177.36;;;17.96;56.50
42411;BME280;28056;51.112;0.984;2022-08-30T04:31:45;101179.47;;;18.62;55.91
42411;BME280;28056;51.112;0.984;2022-08-30T04:34:14;101174.95;;;17.94;58.18
42411;BME280;28056;51.112;0.984;2022-08-30T04:36:41;101174.96;;;17.76;58.60
42411;BME280;28056;51.112;0.984;2022-08-30T04:39:10;101179.57;;;17.58;59.90
42411;BME280;28056;51.112;0.984;2022-08-30T04:41:37;101179.05;;;18.31;58.33
42411;BME280;28056;51.112;0.984;2022-08-30T04:44:06;101179.00;;;18.35;57.90
42411;BME280;28056;51.112;0.984;2022-08-30T04:46:34;101181.62;;;18.43;58.50
42411;BME280;28056;51.112;0.984;2022-08-30T04:49:02;101184.79;;;17.79;60.46
42411;BME280;28056;51.112;0.984;2022-08-30T04:51:31;101186.90;;;17.77;59.67
42411;BME280;28056;51.112;0.984;2022-08-30T04:53:58;101191.48;;;17.81;60.04
42411;BME280;28056;51.112;0.984;2022-08-30T04:56:25;101192.17;;;18.35;59.33
42411;BME280;28056;51.112;0.984;2022-08-30T04:58:54;101195.78;;;18.37;59.99
42411;BME280;28056;51.112;0.984;2022-08-30T05:01:23;101202.34;;;18.69;58.64
42411;BME280;28056;51.112;0.984;2022-08-30T05:03:52;101199.56;;;18.06;58.58
42411;BME280;28056;51.112;0.984;2022-08-30T05:06:20;101200.24;;;18.79;57.19
42411;BME280;28056;51.112;0.984;2022-08-30T05:08:48;101196.98;;;18.71;57.52
42411;BME280;28056;51.112;0.984;2022-08-30T05:11:16;101198.34;;;18.97;56.98
42411;BME280;28056;51.112;0.984;2022-08-30T05:13:44;101200.22;;;19.25;56.90
42411;BME280;28056;51.112;0.984;2022-08-30T05:16:12;101199.33;;;18.36;58.15
42411;BME280;28056;51.112;0.984;2022-08-30T05:18:40;101201.15;;;19.38;56.64
42411;BME280;28056;51.112;0.984;2022-08-30T05:21:10;101202.10;;;17.87;59.62
42411;BME280;28056;51.112;0.984;2022-08-30T05:23:39;101207.56;;;18.60;58.44
42411;BME280;28056;51.112;0.984;2022-08-30T05:26:10;101204.88;;;17.90;59.66
42411;BME280;28056;51.112;0.984;2022-08-30T05:28:38;101202.09;;;17.81;59.74
42411;BME280;28056;51.112;0.984;2022-08-30T05:31:13;101203.14;;;18.18;59.45
42411;BME280;28056;51.112;0.984;2022-08-30T05:33:42;101205.65;;;17.86;58.55
42411;BME280;28056;51.112;0.984;2022-08-30T05:36:10;101208.41;;;19.21;55.94
42411;BME280;28056;51.112;0.984;2022-08-30T05:38:39;101204.18;;;19.41;55.40
42411;BME280;28056;51.112;0.984;2022-08-30T05:41:07;101202.42;;;19.90;54.01
42411;BME280;28056;51.112;0.984;2022-08-30T05:43:35;101208.96;;;18.99;55.79
42411;BME280;28056;51.112;0.984;2022-08-30T05:46:04;101214.50;;;19.12;55.73
42411;BME280;28056;51.112;0.984;2022-08-30T05:48:32;101209.11;;;19.60;54.05
42411;BME280;28056;51.112;0.984;2022-08-30T05:51:03;101213.06;;;18.69;56.41
42411;BME280;28056;51.112;0.984;2022-08-30T05:53:31;101211.49;;;17.81;58.80
42411;BME280;28056;51.112;0.984;2022-08-30T05:56:00;101214.59;;;19.21;55.90
42411;BME280;28056;51.112;0.984;2022-08-30T05:58:28;101215.48;;;19.24;55.67
42411;BME280;28056;51.112;0.984;2022-08-30T06:00:56;101214.70;;;19.91;54.37
42411;BME280;28056;51.112;0.984;2022-08-30T06:03:24;101217.79;;;17.96;58.53
42411;BME280;28056;51.112;0.984;2022-08-30T06:05:51;101215.96;;;19.67;55.09
42411;BME280;28056;51.112;0.984;2022-08-30T06:08:19;101217.52;;;20.29;54.43
42411;BME280;28056;51.112;0.984;2022-08-30T06:10:47;101217.48;;;20.46;53.39
42411;BME280;28056;51.112;0.984;2022-08-30T06:13:14;101220.43;;;20.62;53.53
42411;BME280;28056;51.112;0.984;2022-08-30T06:15:42;101223.20;;;20.17;54.20
42411;BME280;28056;51.112;0.984;2022-08-30T06:18:10;101224.35;;;19.82;55.50
42411;BME280;28056;51.112;0.984;2022-08-30T06:20:39;101228.36;;;18.38;59.07
42411;BME280;28056;51.112;0.984;2022-08-30T06:23:07;101226.66;;;18.40;60.31
42411;BME280;28056;51.112;0.984;2022-08-30T06:25:36;101229.15;;;19.16;59.00
42411;BME280;28056;51.112;0.984;2022-08-30T06:28:03;101229.69;;;20.16;56.45
42411;BME280;28056;51.112;0.984;2022-08-30T06:30:31;101229.99;;;20.14;56.60
42411;BME280;28056;51.112;0.984;2022-08-30T06:32:58;101229.55;;;19.70;56.76
42411;BME280;28056;51.112;0.984;2022-08-30T06:35:27;101228.08;;;20.05;56.21
42411;BME280;28056;51.112;0.984;2022-08-30T06:37:54;101228.90;;;20.11;56.84
42411;BME280;28056;51.112;0.984;2022-08-30T06:40:22;101227.20;;;19.75;57.00
42411;BME280;28056;51.112;0.984;2022-08-30T06:42:49;101224.12;;;19.94;57.62
42411;BME280;28056;51.112;0.984;2022-08-30T06:45:17;101220.87;;;20.67;54.81
42411;BME280;28056;51.112;0.984;2022-08-30T06:47:44;101218.05;;;21.14;54.90
42411;BME280;28056;51.112;0.984;2022-08-30T06:50:14;101221.04;;;20.39;55.76
42411;BME280;28056;51.112;0.984;2022-08-30T06:53:07;101221.23;;;20.51;55.01
42411;BME280;28056;51.112;0.984;2022-08-30T07:05:08;101218.80;;;20.92;54.37
42411;BME280;28056;51.112;0.984;2022-08-30T07:07:35;101219.65;;;19.96;53.73
42411;BME280;28056;51.112;0.984;2022-08-30T07:10:03;101221.63;;;20.54;54.39
42411;BME280;28056;51.112;0.984;2022-08-30T07:12:31;101222.55;;;21.22;53.28
42411;BME280;28056;51.112;0.984;2022-08-30T07:14:58;101223.85;;;20.50;54.13
42411;BME280;28056;51.112;0.984;2022-08-30T07:17:27;101222.79;;;20.81;54.55
42411;BME280;28056;51.112;0.984;2022-08-30T07:27:50;101225.21;;;21.17;54.20
42411;BME280;28056;51.112;0.984;2022-08-30T07:30:18;101222.49;;;20.08;54.06
42411;BME280;28056;51.112;0.984;2022-08-30T07:32:46;101222.36;;;20.91;53.41
42411;BME280;28056;51.112;0.984;2022-08-30T07:35:14;101229.98;;;20.88;53.83
42411;BME280;28056;51.112;0.984;2022-08-30T07:37:42;101232.66;;;20.75;53.84
42411;BME280;28056;51.112;0.984;2022-08-30T07:40:10;101232.46;;;20.01;54.10
42411;BME280;28056;51.112;0.984;2022-08-30T07:42:37;101237.48;;;20.87;53.61
42411;BME280;28056;51.112;0.984;2022-08-30T07:45:06;101241.52;;;21.41;53.19
42411;BME280;28056;51.112;0.984;2022-08-30T07:49:46;101244.70;;;21.98;51.20
42411;BME280;28056;51.112;0.984;2022-08-30T07:52:14;101243.19;;;21.25;51.51
42411;BME280;28056;51.112;0.984;2022-08-30T07:54:41;101240.88;;;22.20;50.35
42411;BME280;28056;51.112;0.984;2022-08-30T07:57:09;101245.45;;;22.27;49.68
42411;BME280;28056;51.112;0.984;2022-08-30T07:59:36;101248.54;;;22.50;48.74
42411;BME280;28056;51.112;0.984;2022-08-30T08:02:04;101249.44;;;21.90;48.43
42411;BME280;28056;51.112;0.984;2022-08-30T08:04:31;101248.38;;;21.24;49.79
42411;BME280;28056;51.112;0.984;2022-08-30T08:06:59;101249.10;;;22.31;48.62
42411;BME280;28056;51.112;0.984;2022-08-30T08:09:26;101254.58;;;21.79;47.73
42411;BME280;28056;51.112;0.984;2022-08-30T08:11:54;101257.58;;;21.19;49.31
42411;BME280;28056;51.112;0.984;2022-08-30T08:14:22;101258.15;;;20.86;49.90
42411;BME280;28056;51.112;0.984;2022-08-30T08:16:50;101263.47;;;21.38;49.24
42411;BME280;28056;51.112;0.984;2022-08-30T08:19:18;101263.74;;;21.39;49.60
42411;BME280;28056;51.112;0.984;2022-08-30T08:21:46;101264.73;;;21.28;49.73
42411;BME280;28056;51.112;0.984;2022-08-30T08:24:13;101258.84;;;20.79;50.37
42411;BME280;28056;51.112;0.984;2022-08-30T08:26:41;101264.58;;;20.65;50.81
42411;BME280;28056;51.112;0.984;2022-08-30T08:29:09;101267.75;;;21.10;50.49
42411;BME280;28056;51.112;0.984;2022-08-30T08:31:36;101271.24;;;21.05;50.41
42411;BME280;28056;51.112;0.984;2022-08-30T08:34:04;101269.61;;;20.98;50.88
42411;BME280;28056;51.112;0.984;2022-08-30T08:36:33;101274.35;;;21.00;50.53
42411;BME280;28056;51.112;0.984;2022-08-30T08:39:02;101278.95;;;21.14;50.22
42411;BME280;28056;51.112;0.984;2022-08-30T08:41:39;101278.08;;;20.60;51.52
42411;BME280;28056;51.112;0.984;2022-08-30T08:44:13;101279.58;;;20.83;50.71
42411;BME280;28056;51.112;0.984;2022-08-30T08:46:50;101282.38;;;21.68;49.84
42411;BME280;28056;51.112;0.984;2022-08-30T08:49:20;101281.80;;;21.76;48.92
42411;BME280;28056;51.112;0.984;2022-08-30T08:51:48;101280.20;;;21.99;48.43
42411;BME280;28056;51.112;0.984;2022-08-30T08:54:23;101281.49;;;21.25;48.82
42411;BME280;28056;51.112;0.984;2022-08-30T08:56:53;101284.59;;;21.83;47.84
42411;BME280;28056;51.112;0.984;2022-08-30T08:59:21;101282.55;;;22.18;47.89
42411;BME280;28056;51.112;0.984;2022-08-30T09:01:48;101284.38;;;20.45;49.97
42411;BME280;28056;51.112;0.984;2022-08-30T09:04:21;101286.27;;;21.16;49.44
42411;BME280;28056;51.112;0.984;2022-08-30T09:06:54;101288.19;;;21.28;49.11
42411;BME280;28056;51.112;0.984;2022-08-30T09:09:26;101290.15;;;21.10;49.57
42411;BME280;28056;51.112;0.984;2022-08-30T09:11:55;101287.98;;;20.29;50.62
42411;BME280;28056;51.112;0.984;2022-08-30T09:14:27;101295.51;;;20.18;50.83
42411;BME280;28056;51.112;0.984;2022-08-30T09:16:59;101296.36;;;20.66;49.14
42411;BME280;28056;51.112;0.984;2022-08-30T09:19:31;101297.18;;;20.98;49.08
42411;BME280;28056;51.112;0.984;2022-08-30T09:22:01;101297.14;;;21.01;48.92
42411;BME280;28056;51.112;0.984;2022-08-30T09:24:37;101297.42;;;20.83;49.68
42411;BME280;28056;51.112;0.984;2022-08-30T09:27:25;101299.30;;;21.29;49.31
42411;BME280;28056;51.112;0.984;2022-08-30T09:29:57;101296.08;;;19.89;51.82
42411;BME280;28056;51.112;0.984;2022-08-30T09:32:27;101299.20;;;20.86;50.55
42411;BME280;28056;51.112;0.984;2022-08-30T09:34:56;101301.32;;;20.97;50.12
42411;BME280;28056;51.112;0.984;2022-08-30T09:37:29;101303.82;;;21.89;48.32
42411;BME280;28056;51.112;0.984;2022-08-30T09:39:57;101305.66;;;21.47;49.04
42411;BME280;28056;51.112;0.984;2022-08-30T09:42:28;101300.64;;;22.08;47.51
42411;BME280;28056;51.112;0.984;2022-08-30T09:44:56;101304.84;;;21.72;47.70
42411;BME280;28056;51.112;0.984;2022-08-30T09:47:28;101304.72;;;21.30;48.07
42411;BME280;28056;51.112;0.984;2022-08-30T09:50:03;101309.04;;;21.29;48.31
42411;BME280;28056;51.112;0.984;2022-08-30T09:52:43;101307.10;;;21.53;47.82
42411;BME280;28056;51.112;0.984;2022-08-30T09:55:22;101303.13;;;22.51;46.70
42411;BME280;28056;51.112;0.984;2022-08-30T09:57:59;101301.97;;;22.54;46.79
42411;BME280;28056;51.112;0.984;2022-08-30T10:00:37;101302.03;;;21.85;46.60
42411;BME280;28056;51.112;0.984;2022-08-30T10:03:16;101300.04;;;20.99;47.75
42411;BME280;28056;51.112;0.984;2022-08-30T10:05:55;101299.21;;;21.20;47.50
42411;BME280;28056;51.112;0.984;2022-08-30T10:08:32;101299.66;;;22.64;44.94
42411;BME280;28056;51.112;0.984;2022-08-30T10:11:04;101296.24;;;22.08;45.94
42411;BME280;28056;51.112;0.984;2022-08-30T10:13:47;101290.56;;;21.02;49.37
42411;BME280;28056;51.112;0.984;2022-08-30T10:16:29;101296.25;;;21.41;48.52
42411;BME280;28056;51.112;0.984;2022-08-30T10:19:09;101292.70;;;21.65;47.22
42411;BME280;28056;51.112;0.984;2022-08-30T10:21:46;101289.23;;;21.80;44.85
42411;BME280;28056;51.112;0.984;2022-08-30T10:24:18;101292.13;;;22.60;43.59
42411;BME280;28056;51.112;0.984;2022-08-30T10:26:51;101304.26;;;22.57;42.75
42411;BME280;28056;51.112;0.984;2022-08-30T10:29:24;101300.83;;;23.83;42.13
42411;BME280;28056;51.112;0.984;2022-08-30T10:31:58;101302.91;;;24.61;41.12
42411;BME280;28056;51.112;0.984;2022-08-30T10:34:31;101303.38;;;22.74;42.08
42411;BME280;28056;51.112;0.984;2022-08-30T10:37:05;101300.73;;;22.83;42.07
42411;BME280;28056;51.112;0.984;2022-08-30T10:39:38;101297.82;;;22.13;43.07
42411;BME280;28056;51.112;0.984;2022-08-30T10:42:12;101303.11;;;22.23;43.27
42411;BME280;28056;51.112;0.984;2022-08-30T10:44:45;101300.92;;;22.41;42.12
42411;BME280;28056;51.112;0.984;2022-08-30T10:47:22;101300.98;;;24.03;42.26
42411;BME280;28056;51.112;0.984;2022-08-30T10:50:02;101298.20;;;25.05;40.52
42411;BME280;28056;51.112;0.984;2022-08-30T10:52:35;101298.73;;;25.53;37.19
42411;BME280;28056;51.112;0.984;2022-08-30T10:55:10;101295.13;;;25.64;38.18
42411;BME280;28056;51.112;0.984;2022-08-30T10:57:39;101296.61;;;26.27;37.24
42411;BME280;28056;51.112;0.984;2022-08-30T11:00:08;101298.38;;;26.77;36.24
42411;BME280;28056;51.112;0.984;2022-08-30T11:03:02;101296.10;;;26.45;35.76
42411;BME280;28056;51.112;0.984;2022-08-30T11:05:46;101299.17;;;26.11;35.12
42411;BME280;28056;51.112;0.984;2022-08-30T11:08:35;101297.87;;;25.22;36.44
42411;BME280;28056;51.112;0.984;2022-08-30T11:11:13;101292.52;;;25.34;36.03
42411;BME280;28056;51.112;0.984;2022-08-30T11:13:46;101298.44;;;25.71;36.01
42411;BME280;28056;51.112;0.984;2022-08-30T11:16:16;101297.26;;;24.89;36.58
42411;BME280;28056;51.112;0.984;2022-08-30T11:18:46;101292.61;;;24.84;36.87
42411;BME280;28056;51.112;0.984;2022-08-30T11:21:30;101297.34;;;25.18;36.04
42411;BME280;28056;51.112;0.984;2022-08-30T11:24:01;101299.38;;;25.57;35.36
42411;BME280;28056;51.112;0.984;2022-08-30T11:27:02;101299.07;;;26.14;35.44
42411;BME280;28056;51.112;0.984;2022-08-30T11:29:35;101299.14;;;25.71;34.68
42411;BME280;28056;51.112;0.984;2022-08-30T11:32:23;101300.27;;;26.43;33.66
42411;BME280;28056;51.112;0.984;2022-08-30T11:35:41;101304.67;;;26.52;34.20
42411;BME280;28056;51.112;0.984;2022-08-30T11:38:16;101301.28;;;25.50;34.63
42411;BME280;28056;51.112;0.984;2022-08-30T11:41:06;101298.98;;;27.96;32.64
42411;BME280;28056;51.112;0.984;2022-08-30T11:43:51;101295.20;;;27.04;32.26
42411;BME280;28056;51.112;0.984;2022-08-30T11:46:34;101302.61;;;27.37;32.25
42411;BME280;28056;51.112;0.984;2022-08-30T11:50:10;101303.40;;;27.51;32.13
42411;BME280;28056;51.112;0.984;2022-08-30T11:52:49;101309.91;;;27.52;32.19
42411;BME280;28056;51.112;0.984;2022-08-30T11:55:44;101302.15;;;26.53;31.69
42411;BME280;28056;51.112;0.984;2022-08-30T11:58:24;101304.60;;;25.30;33.24
42411;BME280;28056;51.112;0.984;2022-08-30T12:01:16;101305.36;;;26.63;32.08
42411;BME280;28056;51.112;0.984;2022-08-30T12:03:44;101311.75;;;26.81;32.67
42411;BME280;28056;51.112;0.984;2022-08-30T12:06:46;101316.26;;;26.56;32.75
42411;BME280;28056;51.112;0.984;2022-08-30T12:09:59;101314.77;;;25.91;32.13
42411;BME280;28056;51.112;0.984;2022-08-30T12:12:47;101307.83;;;26.89;32.60
42411;BME280;28056;51.112;0.984;2022-08-30T12:15:53;101307.45;;;26.87;32.71
42411;BME280;28056;51.112;0.984;2022-08-30T12:18:27;101308.07;;;26.67;32.22
42411;BME280;28056;51.112;0.984;2022-08-30T12:21:03;101313.42;;;27.89;32.99
42411;BME280;28056;51.112;0.984;2022-08-30T12:23:37;101312.29;;;26.64;32.06
42411;BME280;28056;51.112;0.984;2022-08-30T12:26:11;101316.08;;;26.75;30.71
42411;BME280;28056;51.112;0.984;2022-08-30T12:28:41;101312.89;;;27.00;31.64
42411;BME280;28056;51.112;0.984;2022-08-30T12:31:10;101314.68;;;27.09;31.26
42411;BME280;28056;51.112;0.984;2022-08-30T12:33:42;101319.84;;;25.58;32.83
42411;BME280;28056;51.112;0.984;2022-08-30T12:36:15;101316.21;;;24.30;35.19
42411;BME280;28056;51.112;0.984;2022-08-30T12:38:43;101321.28;;;24.61;34.70
42411;BME280;28056;51.112;0.984;2022-08-30T12:41:18;101322.35;;;23.44;36.43
42411;BME280;28056;51.112;0.984;2022-08-30T12:43:48;101324.08;;;23.64;37.03
42411;BME280;28056;51.112;0.984;2022-08-30T12:46:17;101324.39;;;24.50;36.69
42411;BME280;28056;51.112;0.984;2022-08-30T12:48:45;101324.33;;;24.24;37.13
42411;BME280;28056;51.112;0.984;2022-08-30T12:51:36;101329.08;;;24.51;37.21
42411;BME280;28056;51.112;0.984;2022-08-30T12:54:07;101330.69;;;23.86;38.02
42411;BME280;28056;51.112;0.984;2022-08-30T12:56:53;101323.83;;;24.86;36.25
42411;BME280;28056;51.112;0.984;2022-08-30T12:59:54;101326.18;;;23.77;38.15
42411;BME280;28056;51.112;0.984;2022-08-30T13:02:24;101317.53;;;24.98;36.99
42411;BME280;28056;51.112;0.984;2022-08-30T13:04:54;101314.99;;;24.40;37.83
42411;BME280;28056;51.112;0.984;2022-08-30T13:07:29;101318.98;;;23.23;39.42
42411;BME280;28056;51.112;0.984;2022-08-30T13:10:06;101316.39;;;23.02;40.46
42411;BME280;28056;51.112;0.984;2022-08-30T13:12:35;101320.40;;;24.39;40.06
42411;BME280;28056;51.112;0.984;2022-08-30T13:15:14;101320.51;;;25.00;37.24
42411;BME280;28056;51.112;0.984;2022-08-30T13:17:42;101320.55;;;24.46;37.53
42411;BME280;28056;51.112;0.984;2022-08-30T13:20:23;101323.33;;;24.18;37.80
42411;BME280;28056;51.112;0.984;2022-08-30T13:23:07;101316.99;;;24.41;37.92
42411;BME280;28056;51.112;0.984;2022-08-30T13:25:38;101317.73;;;24.14;38.70
42411;BME280;28056;51.112;0.984;2022-08-30T13:28:06;101312.33;;;24.75;37.12
42411;BME280;28056;51.112;0.984;2022-08-30T13:30:34;101311.78;;;25.92;36.45
42411;BME280;28056;51.112;0.984;2022-08-30T13:33:01;101307.78;;;24.88;35.57